createdAt,value
2023-01-29T00:00:11.188Z,-0.10
2023-01-29T00:02:42.442Z,-0.20
2023-01-29T00:08:00.575Z,-0.20
2023-01-29T00:10:20.968Z,-0.20
2023-01-29T00:10:28.689Z,-0.20
2023-01-29T00:12:56.699Z,-0.20
2023-01-29T00:15:24.880Z,-0.20
2023-01-29T00:17:52.940Z,-0.20
2023-01-29T00:20:21.152Z,-0.20
2023-01-29T00:22:49.446Z,-0.20
2023-01-29T00:25:19.035Z,-0.20
2023-01-29T00:27:47.153Z,-0.20
2023-01-29T00:30:19.339Z,-0.20
2023-01-29T00:32:47.906Z,-0.30
2023-01-29T00:35:16.389Z,-0.30
2023-01-29T00:37:44.494Z,-0.20
2023-01-29T00:40:13.779Z,-0.20
2023-01-29T00:43:03.376Z,-0.20
2023-01-29T00:45:31.462Z,-0.20
2023-01-29T00:47:59.612Z,-0.20
2023-01-29T00:50:27.755Z,-0.20
2023-01-29T00:52:56.032Z,-0.20
2023-01-29T00:55:24.325Z,-0.20
2023-01-29T00:57:53.786Z,-0.20
2023-01-29T01:00:22.500Z,-0.20
2023-01-29T01:03:08.222Z,-0.20
2023-01-29T01:05:36.813Z,-0.20
2023-01-29T01:08:25.711Z,-0.20
2023-01-29T01:11:00.504Z,-0.20
2023-01-29T01:13:30.519Z,-0.20
2023-01-29T01:15:58.659Z,-0.20
2023-01-29T01:18:30.082Z,-0.20
2023-01-29T01:20:59.698Z,-0.20
2023-01-29T01:23:28.075Z,-0.20
2023-01-29T01:25:56.229Z,-0.30
2023-01-29T01:28:24.326Z,-0.30
2023-01-29T01:30:53.957Z,-0.30
2023-01-29T01:33:22.123Z,-0.30
2023-01-29T01:35:50.179Z,-0.40
2023-01-29T01:38:18.232Z,-0.40
2023-01-29T01:40:47.408Z,-0.40
2023-01-29T01:43:15.504Z,-0.40
2023-01-29T01:45:46.548Z,-0.40
2023-01-29T01:48:22.603Z,-0.50
2023-01-29T01:50:57.024Z,-0.40
2023-01-29T01:53:31.307Z,-0.40
2023-01-29T01:56:05.777Z,-0.40
2023-01-29T01:58:39.044Z,-0.40
2023-01-29T02:01:10.039Z,-0.40
2023-01-29T02:04:03.951Z,-0.50
2023-01-29T02:06:51.409Z,-0.50
2023-01-29T02:09:35.696Z,-0.50
2023-01-29T02:12:07.343Z,-0.50
2023-01-29T02:14:39.464Z,-0.60
2023-01-29T02:17:10.331Z,-0.60
2023-01-29T02:19:53.957Z,-0.60
2023-01-29T02:23:10.068Z,-0.60
2023-01-29T02:26:04.070Z,-0.60
2023-01-29T02:28:44.699Z,-0.60
2023-01-29T02:31:25.007Z,-0.50
2023-01-29T02:34:09.838Z,-0.50
2023-01-29T02:36:47.618Z,-0.50
2023-01-29T02:39:24.436Z,-0.40
2023-01-29T02:42:02.394Z,-0.40
2023-01-29T02:44:41.262Z,-0.40
2023-01-29T02:47:17.995Z,-0.30
2023-01-29T02:49:53.727Z,-0.30
2023-01-29T02:52:30.464Z,-0.30
2023-01-29T02:55:08.795Z,-0.30
2023-01-29T02:57:41.951Z,-0.20
2023-01-29T03:00:23.398Z,-0.20
2023-01-29T03:03:02.419Z,-0.20
2023-01-29T03:05:43.356Z,-0.20
2023-01-29T03:08:19.172Z,-0.20
2023-01-29T03:10:54.941Z,-0.20
2023-01-29T03:13:35.859Z,-0.10
2023-01-29T03:16:15.125Z,-0.20
2023-01-29T03:18:55.004Z,-0.10
2023-01-29T03:21:47.742Z,-0.10
2023-01-29T03:24:38.522Z,-0.10
2023-01-29T03:27:30.543Z,-0.10
2023-01-29T03:30:19.023Z,-0.10
2023-01-29T03:32:53.562Z,-0.10
2023-01-29T03:35:36.585Z,0.00
2023-01-29T03:38:10.833Z,0.00
2023-01-29T03:40:54.719Z,0.00
2023-01-29T03:43:36.202Z,0.00
2023-01-29T03:46:11.403Z,0.00
2023-01-29T03:48:51.108Z,0.00
2023-01-29T03:51:29.249Z,0.00
2023-01-29T03:54:10.708Z,0.00
2023-01-29T03:56:56.320Z,0.00
2023-01-29T03:59:39.818Z,0.00
2023-01-29T04:02:38.991Z,0.00
2023-01-29T04:05:19.612Z,0.00
2023-01-29T04:08:09.372Z,0.00
2023-01-29T04:10:41.070Z,0.00
2023-01-29T04:13:13.627Z,0.00
2023-01-29T04:15:55.020Z,0.00
2023-01-29T04:18:38.259Z,0.00
2023-01-29T04:21:10.743Z,0.00
2023-01-29T04:23:38.972Z,0.00
2023-01-29T04:26:30.148Z,0.00
2023-01-29T04:29:21.517Z,0.00
2023-01-29T04:32:01.431Z,0.00
2023-01-29T04:34:51.577Z,0.00
2023-01-29T04:37:34.189Z,0.00
2023-01-29T04:40:15.970Z,0.00
2023-01-29T04:42:54.919Z,0.00
2023-01-29T04:45:35.146Z,0.10
2023-01-29T04:48:17.458Z,0.00
2023-01-29T04:50:57.193Z,0.00
2023-01-29T04:53:39.080Z,0.00
2023-01-29T04:56:16.025Z,0.00
2023-01-29T04:58:51.620Z,-0.10
2023-01-29T05:01:25.699Z,-0.10
2023-01-29T05:03:56.796Z,-0.10
2023-01-29T05:06:26.861Z,-0.10
2023-01-29T05:08:58.382Z,-0.10
2023-01-29T05:11:27.342Z,0.00
2023-01-29T05:13:57.849Z,0.00
2023-01-29T05:16:30.647Z,0.00
2023-01-29T05:18:58.645Z,0.00
2023-01-29T05:21:28.833Z,0.00
2023-01-29T05:24:11.966Z,0.10
2023-01-29T05:26:57.853Z,0.10
2023-01-29T05:29:25.889Z,0.20
2023-01-29T05:31:54.072Z,0.20
2023-01-29T05:34:22.268Z,0.20
2023-01-29T05:36:50.400Z,0.20
2023-01-29T05:39:19.754Z,0.20
2023-01-29T05:41:47.952Z,0.20
2023-01-29T05:44:15.983Z,0.30
2023-01-29T05:46:45.001Z,0.30
2023-01-29T05:49:13.462Z,0.30
2023-01-29T05:51:41.555Z,0.30
2023-01-29T05:54:11.756Z,0.40
2023-01-29T05:56:41.291Z,0.40
2023-01-29T05:59:09.452Z,0.40
2023-01-29T06:01:37.920Z,0.40
2023-01-29T06:04:06.208Z,0.40
2023-01-29T06:06:34.598Z,0.50
2023-01-29T06:09:02.642Z,0.50
2023-01-29T06:11:30.906Z,0.50
2023-01-29T06:14:00.307Z,0.50
2023-01-29T06:16:28.464Z,0.50
2023-01-29T06:18:56.673Z,0.50
2023-01-29T06:21:24.702Z,0.50
2023-01-29T06:23:53.947Z,0.50
2023-01-29T06:26:22.255Z,0.50
2023-01-29T06:28:51.243Z,0.50
2023-01-29T06:31:36.884Z,0.50
2023-01-29T06:34:05.716Z,0.50
2023-01-29T06:36:33.742Z,0.50
2023-01-29T06:39:01.824Z,0.50
2023-01-29T06:41:29.874Z,0.60
2023-01-29T06:43:57.914Z,0.60
2023-01-29T06:46:27.377Z,0.60
2023-01-29T06:48:55.558Z,0.60
2023-01-29T06:51:23.624Z,0.60
2023-01-29T06:53:51.623Z,0.60
2023-01-29T06:56:19.646Z,0.60
2023-01-29T06:58:47.692Z,0.60
2023-01-29T07:01:34.219Z,0.60
2023-01-29T07:04:05.146Z,0.60
2023-01-29T07:06:34.087Z,0.60
2023-01-29T07:09:02.682Z,0.70
2023-01-29T07:11:31.861Z,0.70
2023-01-29T07:13:59.974Z,0.70
2023-01-29T07:16:28.365Z,0.70
2023-01-29T07:18:56.630Z,0.70
2023-01-29T07:21:26.191Z,0.70
2023-01-29T07:23:54.384Z,0.70
2023-01-29T07:26:22.915Z,0.70
2023-01-29T07:28:51.099Z,0.70
2023-01-29T07:31:19.432Z,0.70
2023-01-29T07:33:47.752Z,0.70
2023-01-29T07:36:16.190Z,0.80
2023-01-29T07:38:50.208Z,0.80
2023-01-29T07:41:18.699Z,0.80
2023-01-29T07:43:48.192Z,0.80
2023-01-29T07:46:16.699Z,0.80
2023-01-29T07:48:45.003Z,0.80
2023-01-29T07:51:13.235Z,0.80
2023-01-29T07:53:41.385Z,0.80
2023-01-29T07:56:10.919Z,0.70
2023-01-29T07:58:39.118Z,0.80
2023-01-29T08:01:08.468Z,0.80
2023-01-29T08:03:37.248Z,0.80
2023-01-29T08:06:06.446Z,0.80
2023-01-29T08:08:34.665Z,0.80
2023-01-29T08:11:04.249Z,0.80
2023-01-29T08:13:34.442Z,0.70
2023-01-29T08:16:03.620Z,0.80
2023-01-29T08:18:53.495Z,0.70
2023-01-29T08:21:21.686Z,0.70
2023-01-29T08:23:49.865Z,0.70
2023-01-29T08:26:18.183Z,0.70
2023-01-29T08:28:47.763Z,0.70
2023-01-29T08:31:17.063Z,0.70
2023-01-29T08:33:45.173Z,0.70
2023-01-29T08:36:13.696Z,0.70
2023-01-29T08:38:42.203Z,0.70
2023-01-29T08:41:10.342Z,0.70
2023-01-29T08:43:38.848Z,0.70
2023-01-29T08:46:09.638Z,0.70
2023-01-29T08:48:37.845Z,0.70
2023-01-29T08:51:06.859Z,0.70
2023-01-29T08:53:35.322Z,0.70
2023-01-29T08:56:03.754Z,0.70
2023-01-29T09:04:30.250Z,0.70
2023-01-29T09:07:03.825Z,0.70
2023-01-29T09:09:33.118Z,0.70
2023-01-29T09:12:01.678Z,0.70
2023-01-29T09:14:32.995Z,0.80
2023-01-29T09:17:09.316Z,0.80
2023-01-29T09:22:35.115Z,0.80
2023-01-29T09:25:17.123Z,0.80
2023-01-29T09:28:02.955Z,0.80
2023-01-29T09:30:40.656Z,0.80
2023-01-29T09:33:21.360Z,0.80
2023-01-29T09:36:05.551Z,0.90
2023-01-29T09:38:44.246Z,0.90
2023-01-29T09:44:56.374Z,0.90
2023-01-29T09:47:33.620Z,0.90
2023-01-29T09:50:09.332Z,0.90
2023-01-29T09:52:50.880Z,1.00
2023-01-29T09:55:30.889Z,1.00
2023-01-29T09:58:06.795Z,1.10
2023-01-29T10:01:01.940Z,1.10
2023-01-29T10:04:18.674Z,1.10
2023-01-29T10:07:08.146Z,1.10
2023-01-29T10:10:22.519Z,1.10
2023-01-29T10:13:21.790Z,1.10
2023-01-29T10:16:10.734Z,1.20
2023-01-29T10:19:14.412Z,1.20
2023-01-29T10:22:10.657Z,1.20
2023-01-29T10:24:46.414Z,1.20
2023-01-29T10:27:19.464Z,1.20
2023-01-29T10:29:58.157Z,1.30
2023-01-29T10:32:29.376Z,1.30
2023-01-29T10:35:05.985Z,1.30
2023-01-29T10:37:43.957Z,1.30
2023-01-29T10:40:25.419Z,1.30
2023-01-29T10:43:07.628Z,1.30
2023-01-29T10:45:47.809Z,1.30
2023-01-29T10:48:50.816Z,1.30
2023-01-29T10:51:44.238Z,1.30
2023-01-29T10:54:37.720Z,1.40
2023-01-29T10:57:20.046Z,1.40
2023-01-29T11:00:13.783Z,1.40
2023-01-29T11:02:48.450Z,1.40
2023-01-29T11:05:27.509Z,1.40
2023-01-29T11:08:15.070Z,1.40
2023-01-29T11:10:57.081Z,1.40
2023-01-29T11:13:39.763Z,1.40
2023-01-29T11:16:21.725Z,1.40
2023-01-29T11:19:08.684Z,1.50
2023-01-29T11:22:09.483Z,1.50
2023-01-29T11:25:13.163Z,1.50
2023-01-29T11:27:56.375Z,1.50
2023-01-29T11:30:57.856Z,1.50
2023-01-29T11:33:33.031Z,1.50
2023-01-29T11:36:38.483Z,1.50
2023-01-29T11:39:22.564Z,1.50
2023-01-29T11:41:59.506Z,1.60
2023-01-29T11:44:42.477Z,1.60
2023-01-29T11:47:26.664Z,1.60
2023-01-29T11:50:03.319Z,1.60
2023-01-29T11:52:46.444Z,1.60
2023-01-29T11:55:29.580Z,1.70
2023-01-29T12:01:10.155Z,1.70
2023-01-29T12:04:02.739Z,1.70
2023-01-29T12:07:02.708Z,1.70
2023-01-29T12:12:46.317Z,1.80
2023-01-29T12:15:22.450Z,1.80
2023-01-29T12:18:09.101Z,1.80
2023-01-29T12:20:43.896Z,1.80
2023-01-29T12:23:39.933Z,1.80
2023-01-29T12:26:17.743Z,1.80
2023-01-29T12:29:00.676Z,1.90
2023-01-29T12:31:42.115Z,1.90
2023-01-29T12:34:20.240Z,1.90
2023-01-29T12:36:54.003Z,1.90
2023-01-29T12:39:24.145Z,1.90
2023-01-29T12:42:00.240Z,2.00
2023-01-29T12:44:42.188Z,2.00
2023-01-29T12:47:20.330Z,2.00
2023-01-29T12:49:56.280Z,2.00
2023-01-29T12:52:39.068Z,2.00
2023-01-29T12:55:17.995Z,2.10
2023-01-29T12:57:54.795Z,2.10
2023-01-29T13:00:26.605Z,2.10
2023-01-29T13:03:01.437Z,2.10
2023-01-29T13:05:38.749Z,2.10
2023-01-29T13:08:13.009Z,2.10
2023-01-29T13:10:49.946Z,2.10
2023-01-29T13:13:28.647Z,2.20
2023-01-29T13:16:00.050Z,2.20
2023-01-29T13:18:47.828Z,2.20
2023-01-29T13:21:21.234Z,2.20
2023-01-29T13:23:57.432Z,2.20
2023-01-29T13:26:28.119Z,2.20
2023-01-29T13:28:56.806Z,2.20
2023-01-29T13:31:34.591Z,2.20
2023-01-29T13:34:25.606Z,2.20
2023-01-29T13:36:58.245Z,2.20
2023-01-29T13:39:31.239Z,2.30
2023-01-29T13:42:04.073Z,2.30
2023-01-29T13:44:36.889Z,2.30
2023-01-29T13:47:09.422Z,2.30
2023-01-29T13:49:42.497Z,2.30
2023-01-29T13:52:29.176Z,2.30
2023-01-29T13:55:00.831Z,2.30
2023-01-29T13:57:54.711Z,2.30
2023-01-29T14:01:01.574Z,2.30
2023-01-29T14:04:05.001Z,2.30
2023-01-29T14:06:52.396Z,2.30
2023-01-29T14:10:05.969Z,2.30
2023-01-29T14:12:55.685Z,2.40
2023-01-29T14:15:35.867Z,2.40
2023-01-29T14:18:22.931Z,2.40
2023-01-29T14:21:04.643Z,2.40
2023-01-29T14:23:41.969Z,2.40
2023-01-29T14:26:33.245Z,2.40
2023-01-29T14:29:08.667Z,2.40
2023-01-29T14:31:48.643Z,2.40
2023-01-29T14:34:24.936Z,2.40
2023-01-29T14:36:57.257Z,2.30
2023-01-29T14:39:38.584Z,2.30
2023-01-29T14:42:24.556Z,2.40
2023-01-29T14:45:23.522Z,2.30
2023-01-29T14:48:39.817Z,2.30
2023-01-29T14:51:13.142Z,2.40
2023-01-29T14:54:00.446Z,2.30
2023-01-29T14:56:35.885Z,2.40
2023-01-29T14:59:19.847Z,2.40
2023-01-29T15:01:57.809Z,2.30
2023-01-29T15:04:30.846Z,2.30
2023-01-29T15:07:07.011Z,2.40
2023-01-29T15:09:46.984Z,2.40
2023-01-29T15:12:26.852Z,2.40
2023-01-29T15:15:08.216Z,2.40
2023-01-29T15:17:50.598Z,2.40
2023-01-29T15:20:30.537Z,2.40
2023-01-29T15:22:58.967Z,2.40
2023-01-29T15:25:31.121Z,2.40
2023-01-29T15:28:01.855Z,2.40
2023-01-29T15:30:34.970Z,2.40
2023-01-29T15:33:10.628Z,2.40
2023-01-29T15:35:42.556Z,2.40
2023-01-29T15:38:18.786Z,2.40
2023-01-29T15:40:54.367Z,2.40
2023-01-29T15:43:28.020Z,2.40
2023-01-29T15:46:01.019Z,2.40
2023-01-29T15:48:36.820Z,2.40
2023-01-29T15:51:08.960Z,2.40
2023-01-29T15:53:44.064Z,2.40
2023-01-29T15:56:21.748Z,2.40
2023-01-29T15:58:52.082Z,2.40
2023-01-29T16:01:21.260Z,2.40
2023-01-29T16:03:52.174Z,2.40
2023-01-29T16:06:22.506Z,2.40
2023-01-29T16:08:55.454Z,2.40
2023-01-29T16:11:24.263Z,2.40
2023-01-29T16:13:53.807Z,2.30
2023-01-29T16:16:26.640Z,2.30
2023-01-29T16:19:01.411Z,2.30
2023-01-29T16:21:35.028Z,2.30
2023-01-29T16:24:09.696Z,2.30
2023-01-29T16:26:43.414Z,2.30
2023-01-29T16:29:15.869Z,2.30
2023-01-29T16:31:46.973Z,2.30
2023-01-29T16:34:30.754Z,2.30
2023-01-29T16:37:04.052Z,2.30
2023-01-29T16:39:36.855Z,2.30
2023-01-29T16:42:27.128Z,2.30
2023-01-29T16:45:02.428Z,2.30
2023-01-29T16:47:36.917Z,2.30
2023-01-29T16:50:36.209Z,2.30
2023-01-29T16:53:19.742Z,2.30
2023-01-29T16:55:51.771Z,2.30
2023-01-29T16:58:23.683Z,2.30
2023-01-29T17:00:57.728Z,2.30
2023-01-29T17:03:28.429Z,2.30
2023-01-29T17:05:58.189Z,2.30
2023-01-29T17:08:32.148Z,2.40
2023-01-29T17:11:00.761Z,2.40
2023-01-29T17:13:37.335Z,2.40
2023-01-29T17:16:21.846Z,2.40
2023-01-29T17:18:50.402Z,2.40
2023-01-29T17:21:20.403Z,2.40
2023-01-29T17:23:48.636Z,2.40
2023-01-29T17:26:18.414Z,2.40
2023-01-29T17:28:47.237Z,2.40
2023-01-29T17:31:15.578Z,2.40
2023-01-29T17:33:44.988Z,2.40
2023-01-29T17:36:17.612Z,2.40
2023-01-29T17:38:47.352Z,2.30
2023-01-29T17:41:23.714Z,2.40
2023-01-29T17:43:52.602Z,2.40
2023-01-29T17:46:21.575Z,2.40
2023-01-29T17:48:50.183Z,2.40
2023-01-29T17:51:19.492Z,2.40
2023-01-29T17:53:49.016Z,2.40
2023-01-29T17:56:27.382Z,2.40
2023-01-29T17:58:55.572Z,2.40
2023-01-29T18:01:23.939Z,2.40
2023-01-29T18:03:52.652Z,2.40
2023-01-29T18:06:28.300Z,2.40
2023-01-29T18:08:58.478Z,2.40
2023-01-29T18:11:26.714Z,2.40
2023-01-29T18:13:55.156Z,2.40
2023-01-29T18:16:23.705Z,2.40
2023-01-29T18:18:53.561Z,2.30
2023-01-29T18:21:22.619Z,2.40
2023-01-29T18:23:51.156Z,2.40
2023-01-29T18:26:20.768Z,2.40
2023-01-29T18:28:48.952Z,2.40
2023-01-29T18:31:17.889Z,2.40
2023-01-29T18:33:47.262Z,2.40
2023-01-29T18:36:15.478Z,2.40
2023-01-29T18:38:43.605Z,2.40
2023-01-29T18:41:12.265Z,2.40
2023-01-29T18:43:42.968Z,2.40
2023-01-29T18:46:11.649Z,2.50
2023-01-29T18:48:42.515Z,2.50
2023-01-29T18:51:11.048Z,2.50
2023-01-29T18:53:39.223Z,2.50
2023-01-29T18:56:08.944Z,2.50
2023-01-29T18:58:38.174Z,2.50
2023-01-29T19:01:11.950Z,2.50
2023-01-29T19:03:41.556Z,2.50
2023-01-29T19:06:12.059Z,2.50
2023-01-29T19:08:42.872Z,2.50
2023-01-29T19:11:12.444Z,2.50
2023-01-29T19:13:42.501Z,2.50
2023-01-29T19:16:13.453Z,2.50
2023-01-29T19:18:41.515Z,2.50
2023-01-29T19:21:12.678Z,2.50
2023-01-29T19:23:41.691Z,2.60
2023-01-29T19:26:10.066Z,2.60
2023-01-29T19:28:38.351Z,2.50
2023-01-29T19:31:06.698Z,2.50
2023-01-29T19:33:36.694Z,2.50
2023-01-29T19:36:05.376Z,2.50
2023-01-29T19:38:37.736Z,2.50
2023-01-29T19:41:06.565Z,2.50
2023-01-29T19:43:34.823Z,2.50
2023-01-29T19:46:03.143Z,2.50
2023-01-29T19:48:31.433Z,2.50
2023-01-29T19:51:04.334Z,2.50
2023-01-29T19:53:32.915Z,2.50
2023-01-29T19:56:04.419Z,2.50
2023-01-29T19:58:33.562Z,2.50
2023-01-29T20:01:04.135Z,2.50
2023-01-29T20:03:32.562Z,2.50
2023-01-29T20:06:06.360Z,2.50
2023-01-29T20:08:35.744Z,2.50
2023-01-29T20:11:05.611Z,2.50
2023-01-29T20:13:34.262Z,2.60
2023-01-29T20:16:03.877Z,2.60
2023-01-29T20:18:32.810Z,2.60
2023-01-29T20:21:06.178Z,2.60
2023-01-29T20:23:38.637Z,2.60
2023-01-29T20:26:08.870Z,2.60
2023-01-29T20:28:37.251Z,2.60
2023-01-29T20:31:06.992Z,2.60
2023-01-29T20:33:37.037Z,2.60
2023-01-29T20:36:10.579Z,2.60
2023-01-29T20:38:40.087Z,2.60
2023-01-29T20:41:11.271Z,2.60
2023-01-29T20:43:39.560Z,2.70
2023-01-29T20:46:08.689Z,2.70
2023-01-29T20:48:37.449Z,2.60
2023-01-29T20:51:09.310Z,2.70
2023-01-29T20:53:40.990Z,2.70
2023-01-29T20:56:10.173Z,2.70
2023-01-29T20:58:40.836Z,2.70
2023-01-29T21:01:09.945Z,2.70
2023-01-29T21:03:39.123Z,2.70
2023-01-29T21:06:08.632Z,2.80
2023-01-29T21:08:39.076Z,2.80
2023-01-29T21:11:09.584Z,2.80
2023-01-29T21:13:38.458Z,2.80
2023-01-29T21:16:08.273Z,2.80
2023-01-29T21:18:36.296Z,2.80
2023-01-29T21:21:04.836Z,2.80
2023-01-29T21:23:32.921Z,2.80
2023-01-29T21:26:07.354Z,2.80
2023-01-29T21:28:36.027Z,2.80
2023-01-29T21:31:06.299Z,2.80
2023-01-29T21:33:35.015Z,2.90
2023-01-29T21:36:04.284Z,2.80
2023-01-29T21:38:32.639Z,2.90
2023-01-29T21:41:02.127Z,2.90
2023-01-29T21:43:30.779Z,2.90
2023-01-29T21:46:01.043Z,2.90
2023-01-29T21:48:29.110Z,2.90
2023-01-29T21:50:57.319Z,2.90
2023-01-29T21:53:25.489Z,2.90
2023-01-29T21:55:53.607Z,2.90
2023-01-29T21:58:21.648Z,2.90
2023-01-29T22:00:51.061Z,2.90
2023-01-29T22:03:19.147Z,3.00
2023-01-29T22:05:47.262Z,2.90
2023-01-29T22:08:15.396Z,3.00
2023-01-29T22:10:43.483Z,3.00
2023-01-29T22:13:11.731Z,3.00
2023-01-29T22:15:39.775Z,3.00
2023-01-29T22:18:09.157Z,3.00
2023-01-29T22:20:37.234Z,3.00
2023-01-29T22:23:05.307Z,3.00
2023-01-29T22:25:34.009Z,3.00
2023-01-29T22:28:02.084Z,3.00
2023-01-29T22:30:30.219Z,3.10
2023-01-29T22:32:58.296Z,3.00
2023-01-29T22:35:27.683Z,3.10
2023-01-29T22:37:55.868Z,3.10
2023-01-29T22:40:23.958Z,3.10
2023-01-29T22:42:52.029Z,3.10
2023-01-29T22:45:20.125Z,3.10
2023-01-29T22:47:48.203Z,3.10
2023-01-29T22:50:16.749Z,3.10
2023-01-29T22:52:53.391Z,3.10
2023-01-29T22:55:21.809Z,3.20
2023-01-29T22:57:50.840Z,3.20
2023-01-29T23:00:20.421Z,3.20
2023-01-29T23:02:48.875Z,3.20
2023-01-29T23:05:17.417Z,3.30
2023-01-29T23:07:47.022Z,3.30
2023-01-29T23:10:16.507Z,3.30
2023-01-29T23:12:44.875Z,3.30
2023-01-29T23:15:13.013Z,3.30
2023-01-29T23:17:41.117Z,3.30
2023-01-29T23:20:11.361Z,3.30
2023-01-29T23:22:39.482Z,3.30
2023-01-29T23:25:10.376Z,3.30
2023-01-29T23:27:37.496Z,3.30
2023-01-29T23:30:07.840Z,3.30
2023-01-29T23:32:36.058Z,3.30
2023-01-29T23:35:04.212Z,3.40
2023-01-29T23:37:32.247Z,3.40
2023-01-29T23:40:00.315Z,3.40
2023-01-29T23:42:29.726Z,3.40
2023-01-29T23:44:57.813Z,3.40
2023-01-29T23:47:25.920Z,3.40
2023-01-29T23:49:54.106Z,3.40
2023-01-29T23:52:22.138Z,3.50
2023-01-29T23:54:50.192Z,3.50
2023-01-29T23:57:18.233Z,3.50
2023-01-29T23:59:47.744Z,3.50
